Greenville Downtown Airport
KGMU : now visible

Airfield :











YOU CAN JOIN US ON...

 
LOGIN :

Register | Disclaimer

   EN    FR    IT 

 









Legend :    VFR   Marginal VFR   IFR   Intensive IFR   Very Intensive IFR
Visi :
Ceiling :
>= 8 km
>= 3000ft
5 to 8 km
1000 to 3000 ft
1500m to 5 km
500 to 1000 ft
800 to 1500m
200 to 500 ft
< 800m
< 200 ft
Symbols :   Thunderstorms  Fog  Heavy snow  Heavy precipitations  Wind > 20 kt






- Airport Elevation : 1048 ft


KGMU - Greenville Downtown

CURRENT METAR :
  • 301753Z 25013G23KT 10SM CLR 14/04 A2961 RMK AO2 PK WND 23027/1732 SLP024 60001 T01390039 10139 20106 50007

EXPIRED METARs :
  • 301653Z 25019G24KT 10SM CLR 13/06 A2962 RMK AO2 SLP027 T01330056
  • 301553Z 25016G25KT 10SM CLR 13/07 A2961 RMK AO2 SLP025 T01280072
  • 301515Z 24017G23KT 10SM FEW014 SCT020 BKN035 12/08 A2960 RMK AO2 T01220083
  • 301453Z 24018G25KT 10SM BKN012 OVC018 12/09 A2959 RMK AO2 SLP018 60001 T01170089 53018

TAF KGMU
Valid from the 30 at 18:00 until the 01 at 18:00 UTC


301721Z 3018/0118 27014G24KT P6SM BKN040
FM010000 28010G17KT P6SM SCT030
FM010800 26009KT P6SM FEW250
FM011400 26010G20KT P6SM SKC
KZTL FIR / North America



MET'MAP, your aeronautical weather chart ! - Copyright ORBIFLY December 2007 - Disclaimer

ORBIFLY MET'MAP TEAM :

Programming & Development : Alexandra Zaïnal
Concept & original design : Baudouin d'Aumeries
Assistance for programming : Marc-Olivier Méhu
Technical & hardware support : Manuel Goepfert

Contact : metmap@orbifly.com




SOURCES & CREDITS :

   NOAA       Earth
Advisory